Historyczne dane pomiarowe

Dodano dane terminowe – wersja testowa.

Dane z okresu 1951-2019

Wersja bazy: 1.34 [2019-03-16, lista zmian], aktualizacja planowana na 2019-04-15

Dane meteo z obszaru Polski uzyskane na podstawie danych udostępnionych przez Instytut Meteorologii i Gospodarki Wodnej – Państwowy Instytut Badawczy.

 

Wybierz Datę:    

       

TemperaturaWilgotnośćWiatrCiśnienieOpadyŚniegCzas trwania zjawisk
 Stacja t tx tn tng RH VA  wxwx mslp ppp RRR   cm mm wxwxwxwxwxwxwx
1994-08-14 15.7 22.5 12.5- 67.8- 4.0 1.3---- 0.3------------
1994-08-13 17.7 22.3 15.0- 89.3- 6.0 0.7---- 7.6------------
1994-08-12 18.4 19.7 14.7- 88.0- 5.0 1.3---- 0.0------------
1994-08-11 17.9 23.9 14.2- 96.8- 8.0 1.7---- 12.5------------
1994-08-10 19.7 25.0 15.2- 78.3- 4.0 0.7---- 14.8------------
1994-08-09 20.2 27.0 15.7- 89.8- 6.7 0.7---- 23.5------------
1994-08-08 22.2 29.6 18.3- 83.0- 4.3 0.0---- 22.6------------
1994-08-07 22.2 29.3 14.2- 79.3- 6.0 1.3---- 3.5------------
1994-08-06 22.5 31.1 11.6- 60.5- 0.3 0.7---- 0.0------------
1994-08-05 22.4 29.6 15.3- 71.3- 0.0 0.3---- 0.0------------
1994-08-04 22.4 28.0 18.3- 86.3- 3.0 0.3---- 13.2------------
1994-08-03 22.8 30.6 17.0- 75.5- 2.3 1.3---- 10.3------------
1994-08-02 24.7 33.1 13.7- 57.0- 0.7 0.7---- 0.0------------
1994-08-01 25.1 33.6 14.7- 58.0- 1.3 0.7---- 0.0------------
1994-07-31 24.3 32.9 14.2- 61.3- 0.0 0.7---- 0.0------------
1994-07-30 23.5 32.5 12.5- 57.8- 0.7 0.7---- 0.0------------
1994-07-29 22.5 32.1 11.1- 54.3- 0.3 0.7---- 0.0------------
1994-07-28 23.8 31.1 13.2- 54.0- 1.0 1.0---- 0.0------------
1994-07-27 22.4 31.7 12.1- 63.8- 3.7 1.0---- 0.0------------
1994-07-26 22.5 31.5 11.6- 57.5- 1.0 1.0---- 0.0------------
1994-07-25 23.1 31.9 11.6- 59.8- 2.3 1.0---- 0.0------------
1994-07-24 22.9 28.4 11.1- 60.0- 2.0 1.0---- 0.0------------
1994-07-23 21.2 27.6 10.6- 63.0- 2.0 1.3---- 0.0------------
1994-07-22 19.9 26.6 10.1- 60.8- 0.7 1.0---- 0.0------------
1994-07-21 19.1 24.6 9.1- 64.3- 0.7 1.0---- 0.0------------
1994-07-20 18.7 22.9 11.6- 58.0- 2.3 1.7---- 0.0------------
1994-07-19 20.0 24.6 15.2- 78.8- 5.7 0.7---- 0.0------------
1994-07-18 20.1 27.7 17.6- 87.8- 7.0 0.7---- 0.8------------
1994-07-17 23.7 29.7 15.7- 69.8- 2.7 1.0---- 17.9------------
1994-07-16 22.7 30.3 12.7- 66.8- 1.3 1.0---- 0.0------------
1994-07-15 22.1 27.4 13.5- 72.8- 1.3 1.3---- 0.0------------
1994-07-14 20.6 28.0 12.0- 76.0- 2.7 1.7---- 0.0------------
1994-07-13 20.5 26.8 11.2- 64.0- 1.7 1.7---- 0.0------------
1994-07-12 20.3 27.0 13.3- 66.8- 4.3 2.3---- 0.0------------
1994-07-11 16.7 22.4 11.4- 86.5- 4.7 3.0---- 0.0------------
1994-07-10 16.6 20.3 12.1- 81.0- 6.0 2.0---- 0.0------------
1994-07-09 14.0 19.9 8.9- 87.3- 6.3 1.0---- 5.7------------
1994-07-08 18.0 21.9 15.2- 71.0- 4.3 1.7---- 0.0------------
1994-07-07 18.5 26.6 9.1- 69.8- 3.0 1.3---- 2.0------------
1994-07-06 19.4 23.9 11.2- 66.3- 1.3 0.7---- 0.0------------
1994-07-05 19.4 26.8 10.0- 72.8- 3.3 1.0---- 0.2------------
1994-07-04 18.1 26.5 9.1- 65.3- 0.3 1.0---- 0.0------------
1994-07-03 18.6 25.0 8.2- 59.5- 0.3 1.0---- 0.0------------
1994-07-02 17.4 23.0 9.1- 65.3- 0.7 1.3---- 0.0------------
1994-07-01 19.6 23.9 14.9- 73.0- 2.3 2.7---- 0.0------------
1994-06-30 22.4 28.9 15.7- 84.3- 2.7 0.7---- 0.0------------
1994-06-29 23.5 29.1 14.1- 70.8- 0.3 0.7---- 0.0------------
1994-06-28 24.1 29.1 17.0- 73.3- 1.0 1.0---- 0.0------------
1994-06-27 25.6 31.1 14.7- 52.5- 1.3 1.0---- 0.0------------
1994-06-26 19.8 28.2 7.0- 55.3- 0.3 1.7---- 0.0------------
1994-06-25 14.9 21.4 4.2- 56.5- 0.3 1.0---- 0.0------------
1994-06-24 14.3 19.9 5.3- 52.0- 0.7 1.3---- 0.0------------
1994-06-23 18.2 22.6 16.8- 61.0- 3.3 1.7---- 0.0------------
1994-06-22 18.5 27.0 7.2- 66.8- 3.3 1.3---- 0.0------------
1994-06-21 15.4 20.3 6.7- 64.0- 1.7 1.3---- 0.0------------
1994-06-20 17.2 20.9 10.6- 68.8- 3.0 2.0---- 0.0------------
1994-06-19 17.3 22.9 11.1- 72.8- 3.7 1.7---- 0.0------------
1994-06-18 10.9 19.2 2.3- 71.5- 3.3 1.7---- 9.6------------
1994-06-17 11.5 16.0 9.4- 73.3- 5.3 1.0---- 0.0------------
1994-06-16 13.9 19.5 6.4- 71.5- 5.0 2.3---- 0.7------------
382.8 ms

 

Źródłem pochodzenia danych jest Instytut Meteorologii i Gospodarki Wodnej – Państwowy Instytut Badawczy. Dane Instytutu Meteorologii i Gospodarki Wodnej – Państwowego Instytutu Badawczego zostały przetworzone.

Dane źródłowe można odnaleźć na stronie https://dane.imgw.pl